createdAt,value
2022-12-12T00:18:51.518Z,967
2022-12-12T00:48:58.484Z,967
2022-12-12T01:19:02.486Z,967.1
2022-12-12T01:49:04.345Z,967.2
2022-12-12T02:19:08.420Z,967.3
2022-12-12T02:49:10.298Z,967.5
2022-12-12T03:19:15.297Z,967.4
2022-12-12T03:49:17.172Z,967.3
2022-12-12T04:19:25.145Z,967.4
2022-12-12T04:49:31.197Z,967.6
2022-12-12T05:19:32.117Z,967.9
2022-12-12T05:49:37.475Z,968
2022-12-12T06:19:45.385Z,968.2
2022-12-12T06:49:49.482Z,968.3
2022-12-12T07:19:57.409Z,968.6
2022-12-12T07:50:00.276Z,968.8
2022-12-12T08:20:02.238Z,969
2022-12-12T08:50:07.000Z,969.2
2022-12-12T09:20:11.242Z,969.3
2022-12-12T09:50:18.176Z,969.4
2022-12-12T10:20:22.169Z,969.3
2022-12-12T10:50:28.013Z,969
2022-12-12T11:20:33.012Z,968.9
2022-12-12T11:50:35.017Z,968.7
2022-12-12T12:20:39.965Z,968.6
2022-12-12T12:47:59.000Z,968.3
2022-12-12T13:18:02.000Z,968.1
2022-12-12T13:40:45.000Z,968.0
2022-12-12T13:40:56.000Z,968.0
2022-12-12T13:53:04.000Z,968.0
2022-12-12T14:23:09.000Z,967.6
2022-12-12T14:53:13.000Z,967.7
2022-12-12T15:23:16.000Z,967.6
2022-12-12T15:53:28.000Z,967.7
2022-12-12T16:23:36.000Z,967.9
2022-12-12T16:53:39.000Z,968.1
2022-12-12T16:53:49.000Z,968.1
2022-12-12T17:24:21.000Z,968.3
2022-12-12T17:24:32.000Z,968.4
2022-12-12T17:24:42.000Z,968.4
2022-12-12T17:24:52.000Z,968.4
2022-12-12T17:25:03.000Z,968.4
2022-12-12T17:25:13.000Z,968.4
2022-12-12T17:25:24.000Z,968.4
2022-12-12T17:25:34.000Z,968.4
2022-12-12T17:25:45.000Z,968.4
2022-12-12T17:25:55.000Z,968.4
2022-12-12T17:26:05.000Z,968.4
2022-12-12T17:26:16.000Z,968.4
2022-12-12T17:26:26.000Z,968.4
2022-12-12T17:26:37.000Z,968.4
2022-12-12T17:26:47.000Z,968.4
2022-12-12T18:11:52.000Z,968.2
2022-12-12T18:41:54.000Z,968.1
2022-12-12T19:11:56.000Z,968.1
2022-12-12T19:42:08.000Z,968.0
2022-12-12T20:12:10.000Z,967.9
2022-12-12T20:42:12.000Z,968.0
2022-12-12T21:12:14.000Z,968.0
2022-12-12T21:42:15.000Z,967.9
2022-12-12T22:12:18.000Z,967.7
2022-12-12T22:42:22.000Z,967.6
2022-12-12T23:12:23.000Z,967.3
2022-12-12T23:42:32.000Z,967.2
